CDT,Max TemperatureF,Mean TemperatureF,Min TemperatureF,Max Dew PointF,MeanDew PointF,Min DewpointF,Max Humidity, Mean Humidity, Min Humidity, Max Sea Level PressureIn, Mean Sea Level PressureIn, Min Sea Level PressureIn, Max VisibilityMiles, Mean VisibilityMiles, Min VisibilityMiles, Max Wind SpeedMPH, Mean Wind SpeedMPH, Max Gust SpeedMPH,PrecipitationIn, CloudCover, Events, WindDirDegrees
2012-9-1,79,75,71,73,72,70,100,92,74,29.91,29.83,29.77,10,6,2,21,11,28,0.32,8,Rain,94
2012-9-2,84,76,69,72,71,68,100,88,66,29.90,29.84,29.79,10,6,0,14,9,17,0.12,6,Fog-Rain,353
2012-9-3,91,79,68,71,69,66,100,81,50,29.93,29.89,29.85,10,6,0,9,5,,0.21,2,Fog,27
2012-9-4,92,83,73,71,68,65,93,67,41,29.92,29.85,29.79,10,9,2,12,4,15,0.45,0,,198
2012-9-5,87,76,65,69,65,61,84,70,55,29.91,29.83,29.78,10,10,2,43,10,66,0.05,2,Rain-Thunderstorm,156
2012-9-6,88,78,67,67,61,52,93,62,31,29.98,29.90,29.86,10,10,9,12,5,14,0.00,0,,62
2012-9-7,85,71,57,67,63,56,87,71,55,29.95,29.83,29.75,10,10,3,31,10,36,0.09,3,Rain-Thunderstorm,334
2012-9-8,74,63,51,56,49,46,93,66,38,30.05,29.98,29.91,10,10,10,21,10,25,0.00,0,,292
2012-9-9,73,63,53,51,49,47,83,62,41,30.16,30.08,29.95,10,10,10,16,8,21,0.00,1,,2
2012-9-10,78,65,51,53,49,46,83,60,36,30.22,30.14,30.07,10,10,10,14,6,20,0.00,0,,157
2012-9-11,85,71,56,57,54,52,86,60,34,30.13,30.08,30.02,10,10,10,17,9,21,0.00,0,,172
2012-9-12,85,74,63,60,56,53,78,56,34,30.14,30.09,30.05,10,10,10,17,8,25,0.00,0,,177
2012-9-13,68,60,52,58,52,49,93,77,60,30.35,30.26,30.12,10,9,4,23,11,29,0.17,6,Rain,16
2012-9-14,70,60,50,53,48,44,93,67,40,30.39,30.35,30.31,10,7,1,13,5,16,0.01,3,Rain,27
2012-9-15,74,62,49,51,47,45,86,62,38,30.32,30.25,30.15,10,10,10,13,5,20,0.00,0,,141
2012-9-16,77,63,48,59,54,46,89,72,54,30.14,30.05,29.97,10,10,7,12,4,16,0.00,1,,164
2012-9-17,77,64,50,64,57,47,100,80,60,29.97,29.91,29.77,10,5,0,26,7,35,0.04,5,Fog-Rain,283
2012-9-18,65,55,44,47,41,36,93,64,34,30.07,30.00,29.93,10,10,10,17,7,24,0.01,0,,310
2012-9-19,77,61,44,50,43,39,83,58,33,30.08,29.98,29.86,10,10,10,28,13,36,0.00,0,,192
2012-9-20,74,62,50,50,40,30,83,53,22,30.00,29.96,29.89,10,10,2,20,7,26,0.00,1,,278
2012-9-21,81,64,46,56,46,41,93,61,29,29.97,29.83,29.67,10,10,10,22,9,29,0.00,2,,203
2012-9-22,63,54,44,46,37,30,93,63,32,30.25,30.09,29.88,10,10,10,23,9,28,0.00,0,,316
2012-9-23,66,52,38,40,33,27,92,58,24,30.34,30.28,30.24,10,10,10,17,5,22,0.00,0,,299
2012-9-24,72,57,42,47,37,28,62,46,29,30.25,30.09,29.90,10,10,10,17,8,24,0.00,0,,164
2012-9-25,79,68,57,65,59,48,93,76,58,29.90,29.84,29.79,10,9,2,14,6,18,0.80,3,Rain-Thunderstorm,173
2012-9-26,69,64,59,65,62,51,100,86,72,30.09,30.00,29.87,10,6,1,14,6,18,0.75,4,Rain-Thunderstorm,266
2012-9-27,73,63,53,54,50,44,93,69,44,30.21,30.16,30.09,10,10,10,14,6,17,0.00,4,,51
2012-9-28,71,59,47,48,44,41,93,65,37,30.22,30.16,30.12,10,10,8,14,5,17,0.00,1,,45
2012-9-29,76,61,45,48,44,40,83,58,33,30.17,30.09,29.99,10,8,3,9,5,12,0.00,0,,315
2012-9-30,76,63,49,49,47,44,83,58,33,29.98,29.92,29.86,10,9,4,9,5,14,0.00,0,,79